createdAt,value
2022-08-26T00:15:09.310Z,24.44
2022-08-26T00:30:26.606Z,24.39
2022-08-26T00:31:07.128Z,24.39
2022-08-26T00:45:44.359Z,24.3
2022-08-26T01:01:01.275Z,24.02
2022-08-26T01:16:17.246Z,24.02
2022-08-26T01:31:33.248Z,23.84
2022-08-26T01:46:49.108Z,23.92
2022-08-26T02:02:06.087Z,23.73
2022-08-26T02:17:22.028Z,23.2
2022-08-26T02:32:40.181Z,22.96
2022-08-26T02:47:55.964Z,23.08
2022-08-26T03:03:12.932Z,23.17
2022-08-26T03:18:28.898Z,23.22
2022-08-26T03:33:44.867Z,23.27
2022-08-26T03:49:00.830Z,22.84
2022-08-26T04:04:17.797Z,22.69
2022-08-26T04:19:33.780Z,22.43
2022-08-26T04:34:50.744Z,22.15
2022-08-26T04:50:07.725Z,22.08
2022-08-26T05:05:24.679Z,22
2022-08-26T05:20:40.650Z,21.79
2022-08-26T05:35:56.612Z,21.75
2022-08-26T05:51:12.635Z,22
2022-08-26T06:06:29.555Z,22.33
2022-08-26T06:21:46.551Z,23.73
2022-08-26T06:37:03.605Z,24.41
2022-08-26T06:52:24.450Z,25.18
2022-08-26T07:07:36.454Z,25.62
2022-08-26T07:22:52.414Z,25.7
2022-08-26T07:38:08.385Z,26.76
2022-08-26T07:53:24.343Z,26.49
2022-08-26T08:08:41.323Z,25.88
2022-08-26T08:23:58.283Z,26.92
2022-08-26T08:39:15.253Z,28.34
2022-08-26T08:54:37.612Z,28.42
2022-08-26T09:09:48.183Z,29.07
2022-08-26T09:25:05.153Z,29.86
2022-08-26T09:40:22.191Z,29.32
2022-08-26T09:55:39.056Z,29.55
2022-08-26T10:10:55.061Z,29.78
2022-08-26T10:26:10.994Z,28.71
2022-08-26T10:41:26.992Z,28.23
2022-08-26T10:56:43.930Z,28.54
2022-08-26T11:12:05.145Z,30.98
2022-08-26T11:27:17.864Z,30.2
2022-08-26T11:42:34.863Z,30.29
2022-08-26T11:57:51.798Z,29.01
2022-08-26T12:13:07.797Z,30.19
2022-08-26T12:28:23.740Z,31.2
2022-08-26T12:43:39.732Z,30.71
2022-08-26T12:58:56.673Z,30.66
2022-08-26T13:14:18.442Z,30.32
2022-08-26T13:29:30.812Z,30.72
2022-08-26T13:44:46.613Z,30.67
2022-08-26T14:00:03.543Z,30.81
2022-08-26T14:15:19.542Z,30.1
2022-08-26T14:30:35.474Z,29.47
2022-08-26T14:45:51.453Z,30.57
2022-08-26T15:01:08.457Z,30.64
2022-08-26T15:16:25.484Z,30.34
2022-08-26T15:31:42.508Z,30.85
2022-08-26T15:46:58.805Z,30.57
2022-08-26T16:02:15.405Z,30.16
2022-08-26T16:17:31.262Z,29.86
2022-08-26T16:32:47.223Z,29.41
2022-08-26T16:48:03.228Z,29.08
2022-08-26T17:03:21.154Z,28.79
2022-08-26T17:18:38.131Z,28.2
2022-08-26T17:33:55.095Z,27.7
2022-08-26T17:49:11.073Z,27.35
2022-08-26T18:04:28.121Z,27.19
2022-08-26T18:34:59.968Z,26.71
2022-08-26T18:50:16.938Z,26.31
2022-08-26T19:05:34.914Z,25.91
2022-08-26T19:20:51.910Z,25.69
2022-08-26T19:36:10.400Z,25.54
2022-08-26T19:51:23.841Z,25.32
2022-08-26T20:06:40.777Z,25.1
2022-08-26T20:21:56.789Z,24.91
2022-08-26T20:37:12.720Z,24.72
2022-08-26T20:52:29.724Z,24.57
2022-08-26T21:07:47.652Z,24.4
2022-08-26T21:23:04.650Z,24.29
2022-08-26T21:38:20.619Z,24.1
2022-08-26T21:53:36.587Z,23.9
2022-08-26T22:08:53.559Z,23.28
2022-08-26T22:24:09.521Z,23.26
2022-08-26T22:39:25.493Z,22.99
2022-08-26T22:54:42.460Z,22.8
2022-08-26T23:10:00.431Z,22.43
2022-08-26T23:25:16.401Z,22.26
2022-08-26T23:40:32.455Z,22.12
2022-08-26T23:55:48.336Z,21.91
